Time;durP1;ratioP1;P1;durP2;ratioP2;P2;SDS_P1;SDS_P2;PMS_P1;PMS_P2;Temp;Humidity;BMP_temperature;BMP_pressure;BME280_temperature;BME280_humidity;BME280_pressure;Samples;Min_cycle;Max_cycle;Signal;HPM_P1;HPM_P2
2021/04/26 00:01:08;;;;;;;2.67;1.60;;;;;;;7.06;100.00;102609.78;1913682;75;26657;-75
2021/04/26 00:03:37;;;;;;;4.27;1.80;;;;;;;7.03;100.00;102600.56;1897412;74;26626;-74
2021/04/26 00:06:07;;;;;;;2.53;1.97;;;;;;;6.96;100.00;102599.75;1913729;75;26621;-75
2021/04/26 00:08:37;;;;;;;5.13;2.00;;;;;;;6.90;100.00;102601.99;1897281;76;26630;-74
2021/04/26 00:11:07;;;;;;;3.33;2.30;;;;;;;6.99;100.00;102602.59;1913676;75;26175;-74
2021/04/26 00:13:37;;;;;;;4.40;2.07;;;;;;;6.88;100.00;102592.23;1897348;76;26183;-74
2021/04/26 00:16:07;;;;;;;3.97;2.03;;;;;;;6.91;100.00;102593.17;1913707;75;26275;-75
2021/04/26 00:18:37;;;;;;;3.43;1.90;;;;;;;6.79;100.00;102593.86;1897389;76;26183;-74
2021/04/26 00:21:07;;;;;;;6.50;2.43;;;;;;;6.79;100.00;102588.34;1913816;75;26275;-74
2021/04/26 00:23:37;;;;;;;4.90;2.37;;;;;;;6.82;100.00;102584.28;1897227;76;26634;-74
2021/04/26 00:26:07;;;;;;;4.10;1.80;;;;;;;7.00;100.00;102585.81;1913820;74;26303;-74
2021/04/26 00:28:37;;;;;;;4.77;2.20;;;;;;;6.88;100.00;102583.95;1897228;75;26252;-74
2021/04/26 00:31:06;;;;;;;3.07;2.13;;;;;;;7.01;100.00;102582.52;1913689;75;26193;-74
2021/04/26 00:33:36;;;;;;;2.77;2.00;;;;;;;6.92;100.00;102585.20;1897333;75;26184;-74
2021/04/26 00:36:07;;;;;;;4.00;1.90;;;;;;;7.02;100.00;102578.13;1913854;75;26206;-74
2021/04/26 00:38:36;;;;;;;3.07;1.63;;;;;;;7.04;100.00;102579.30;1897252;76;26183;-74
2021/04/26 00:41:06;;;;;;;2.13;1.70;;;;;;;7.26;100.00;102572.39;1913647;75;26630;-74
2021/04/26 00:43:36;;;;;;;3.50;1.90;;;;;;;7.13;100.00;102571.08;1897404;75;26264;-74
2021/04/26 00:46:06;;;;;;;4.43;2.00;;;;;;;7.04;100.00;102570.48;1913702;75;26185;-74
2021/04/26 00:48:36;;;;;;;4.60;2.23;;;;;;;7.03;100.00;102560.49;1897314;76;26253;-75
2021/04/26 00:51:06;;;;;;;5.37;2.10;;;;;;;7.01;100.00;102563.17;1913690;75;26628;-74
2021/04/26 00:53:37;;;;;;;4.50;2.00;;;;;;;7.06;100.00;102560.61;1897391;76;26180;-74
2021/04/26 00:56:08;;;;;;;5.67;1.90;;;;;;;7.17;100.00;102566.28;1913786;75;26247;-74
2021/04/26 00:58:38;;;;;;;4.50;2.43;;;;;;;6.97;100.00;102557.25;1897223;76;26191;-74
2021/04/26 01:01:08;;;;;;;3.07;2.13;;;;;;;6.92;100.00;102553.44;1913677;75;26189;-75
2021/04/26 01:03:38;;;;;;;2.33;1.70;;;;;;;7.07;100.00;102547.08;1897212;74;26770;-74
2021/04/26 01:06:08;;;;;;;2.57;1.90;;;;;;;7.07;100.00;102541.02;1913793;75;26628;-74
2021/04/26 01:08:38;;;;;;;2.40;1.70;;;;;;;7.16;100.00;102549.91;1897348;76;26179;-74
2021/04/26 01:11:09;;;;;;;4.70;2.00;;;;;;;7.00;100.00;102550.42;1913670;75;26271;-74
2021/04/26 01:14:00;;;;;;;4.93;1.70;;;;;;;7.05;100.00;102539.03;1897330;76;26755;-74
2021/04/26 01:16:34;;;;;;;2.87;1.87;;;;;;;6.76;100.00;102536.84;1913781;75;26667;-75
2021/04/26 01:19:08;;;;;;;5.37;1.93;;;;;;;6.65;100.00;102534.21;1897210;76;26244;-75
2021/04/26 01:21:47;;;;;;;3.07;1.70;;;;;;;6.65;100.00;102531.98;1913632;75;26601;-75
2021/04/26 01:24:42;;;;;;;3.23;1.80;;;;;;;6.64;100.00;102524.23;1896431;75;26187;-75
2021/04/26 01:27:19;;;;;;;5.03;1.90;;;;;;;6.58;100.00;102518.22;1913558;74;26311;-75
2021/04/26 01:30:23;;;;;;;2.57;1.70;;;;;;;6.73;100.00;102518.77;1897211;75;26689;-75
2021/04/26 01:32:56;;;;;;;3.37;1.87;;;;;;;6.74;100.00;102514.95;1901588;74;26185;-76
2021/04/26 01:35:28;;;;;;;5.33;1.90;;;;;;;6.54;100.00;102519.72;1897228;76;26164;-76
2021/04/26 01:38:01;;;;;;;3.63;1.83;;;;;;;6.56;100.00;102508.44;1913681;75;26186;-76
2021/04/26 01:40:32;;;;;;;2.83;1.90;;;;;;;6.74;100.00;102502.52;1897265;76;26692;-76
2021/04/26 01:43:04;;;;;;;4.17;1.87;;;;;;;6.83;100.00;102505.88;1913613;75;26205;-76
2021/04/26 01:45:34;;;;;;;2.43;1.50;;;;;;;6.67;100.00;102498.95;1897271;76;26199;-76
2021/04/26 01:48:04;;;;;;;5.73;1.73;;;;;;;6.56;100.00;102499.62;1913923;75;26267;-75
2021/04/26 01:50:34;;;;;;;5.30;1.77;;;;;;;6.54;100.00;102495.40;1897221;76;26175;-75
2021/04/26 01:53:06;;;;;;;3.37;2.03;;;;;;;6.47;100.00;102491.80;1913674;75;26287;-75
2021/04/26 01:55:36;;;;;;;4.50;2.13;;;;;;;6.48;100.00;102492.97;1879763;76;26176;-75
2021/04/26 01:58:07;;;;;;;5.33;2.10;;;;;;;6.51;100.00;102497.19;1904788;75;26194;-75
2021/04/26 02:00:38;;;;;;;3.00;1.93;;;;;;;6.48;100.00;102500.40;1885511;76;26200;-74
2021/04/26 02:03:10;;;;;;;4.60;2.17;;;;;;;6.67;100.00;102493.97;1904705;74;26767;-75
2021/04/26 02:05:41;;;;;;;2.10;1.90;;;;;;;6.64;100.00;102496.61;1885486;76;26222;-75
2021/04/26 02:08:12;;;;;;;7.53;2.03;;;;;;;6.72;100.00;102494.98;1904863;75;26718;-75
2021/04/26 02:10:42;;;;;;;2.07;1.60;;;;;;;6.48;100.00;102487.98;1896874;76;26179;-75
2021/04/26 02:13:15;;;;;;;5.40;1.90;;;;;;;6.36;100.00;102494.19;1913616;75;26275;-75
2021/04/26 02:15:46;;;;;;;4.73;1.70;;;;;;;6.24;100.00;102498.69;1897162;76;26183;-75
2021/04/26 02:18:16;;;;;;;2.43;1.63;;;;;;;6.43;100.00;102494.67;1913637;75;26271;-75
2021/04/26 02:20:46;;;;;;;5.03;2.07;;;;;;;6.31;100.00;102493.98;1897148;76;26685;-75
2021/04/26 02:23:16;;;;;;;2.90;2.00;;;;;;;6.33;100.00;102502.06;1913662;75;26191;-77
2021/04/26 02:25:46;;;;;;;3.00;1.87;;;;;;;6.54;100.00;102499.55;1897181;76;26191;-76
2021/04/26 02:28:16;;;;;;;4.07;2.10;;;;;;;6.45;100.00;102491.18;1914559;74;26241;-76
2021/04/26 02:30:46;;;;;;;5.07;1.90;;;;;;;6.49;100.00;102492.44;1897715;75;26265;-75
2021/04/26 02:33:18;;;;;;;5.27;1.70;;;;;;;6.39;100.00;102489.60;1913680;75;26348;-75
2021/04/26 02:35:51;;;;;;;2.87;1.60;;;;;;;6.21;100.00;102486.67;1897363;75;26175;-75
2021/04/26 02:38:25;;;;;;;1.87;1.57;;;;;;;6.30;100.00;102488.14;1913600;75;26333;-75
2021/04/26 02:40:59;;;;;;;2.13;1.43;;;;;;;6.36;100.00;102483.14;1897167;76;26273;-75
2021/04/26 02:43:29;;;;;;;3.47;1.73;;;;;;;6.12;100.00;102483.83;1913356;74;26259;-75
2021/04/26 02:46:02;;;;;;;2.93;1.47;;;;;;;5.95;100.00;102479.84;1897190;76;26187;-76
2021/04/26 02:48:32;;;;;;;3.73;1.70;;;;;;;5.99;100.00;102483.86;1913599;75;26734;-75
2021/04/26 02:51:03;;;;;;;3.90;1.63;;;;;;;5.90;100.00;102473.58;1897135;76;26187;-76
2021/04/26 02:53:35;;;;;;;3.33;1.40;;;;;;;6.05;100.00;102471.13;1913713;75;26201;-75
2021/04/26 02:56:10;;;;;;;4.20;1.50;;;;;;;6.08;100.00;102472.91;1897215;76;26187;-75
2021/04/26 02:58:41;;;;;;;6.57;1.67;;;;;;;6.00;100.00;102469.54;1913752;75;26710;-75
2021/04/26 03:01:12;;;;;;;4.00;1.57;;;;;;;6.04;100.00;102472.18;1897280;75;26649;-75
2021/04/26 03:03:45;;;;;;;4.37;1.63;;;;;;;6.04;100.00;102470.27;1913685;74;26652;-75
2021/04/26 03:06:17;;;;;;;7.20;2.50;;;;;;;5.88;100.00;102463.84;1897357;76;26246;-75
2021/04/26 03:08:47;;;;;;;3.77;1.50;;;;;;;5.84;100.00;102463.39;1913729;75;26618;-76
2021/04/26 03:11:19;;;;;;;7.60;2.30;;;;;;;5.97;100.00;102466.70;1897340;76;26256;-76
2021/04/26 03:13:50;;;;;;;4.40;1.67;;;;;;;6.13;100.00;102459.85;1913754;75;26193;-75
2021/04/26 03:16:20;;;;;;;4.90;1.77;;;;;;;5.87;100.00;102456.09;1897471;76;26186;-75
2021/04/26 03:18:50;;;;;;;5.20;1.80;;;;;;;5.78;100.00;102457.34;1913779;75;26594;-75
2021/04/26 03:21:21;;;;;;;5.57;1.70;;;;;;;5.85;100.00;102457.36;1897309;76;26178;-75
2021/04/26 03:23:51;;;;;;;2.97;2.10;;;;;;;5.82;100.00;102450.34;1913733;75;26196;-75
2021/04/26 03:26:22;;;;;;;2.80;1.77;;;;;;;5.78;100.00;102452.36;1897337;76;26611;-75
2021/04/26 03:28:53;;;;;;;5.57;1.60;;;;;;;5.52;100.00;102449.66;1914562;75;26284;-75
2021/04/26 03:31:28;;;;;;;3.47;1.90;;;;;;;5.28;100.00;102457.48;1900321;75;26626;-75
2021/04/26 03:33:59;;;;;;;3.13;1.77;;;;;;;5.27;100.00;102452.17;1913663;75;26177;-74
2021/04/26 03:36:30;;;;;;;4.00;1.77;;;;;;;5.59;100.00;102444.45;1897280;76;26183;-75
2021/04/26 03:39:00;;;;;;;2.07;1.40;;;;;;;5.47;100.00;102447.02;1913724;75;26185;-75
2021/04/26 03:41:30;;;;;;;3.10;1.50;;;;;;;5.55;100.00;102450.60;1897245;76;26187;-75
2021/04/26 03:44:18;;;;;;;2.57;1.70;;;;;;;5.38;100.00;102447.43;1846497;78;33156;-75
2021/04/26 03:46:54;;;;;;;4.07;1.80;;;;;;;5.24;100.00;102451.23;1892151;76;26296;-75
2021/04/26 03:49:24;;;;;;;4.47;1.67;;;;;;;5.45;100.00;102449.64;1882919;76;26235;-75
2021/04/26 03:51:54;;;;;;;3.40;1.93;;;;;;;5.53;100.00;102443.06;1880471;76;26212;-76
2021/04/26 03:54:24;;;;;;;3.80;2.00;;;;;;;5.68;100.00;102439.56;1880451;76;26672;-76
2021/04/26 03:56:54;;;;;;;6.43;2.03;;;;;;;5.77;100.00;102439.66;1880619;76;26215;-75
2021/04/26 03:59:24;;;;;;;4.83;1.77;;;;;;;6.00;100.00;102438.67;1880536;76;26293;-75
2021/04/26 04:01:54;;;;;;;5.27;1.73;;;;;;;6.05;100.00;102434.73;1868256;75;930654;-74
2021/04/26 04:04:24;;;;;;;2.93;1.60;;;;;;;6.21;100.00;102437.54;1880418;76;26211;-76
2021/04/26 04:06:54;;;;;;;3.53;1.93;;;;;;;6.28;100.00;102439.23;1880423;76;26277;-76
2021/04/26 04:09:24;;;;;;;5.33;2.00;;;;;;;6.13;100.00;102437.78;1880415;76;26277;-75
2021/04/26 04:11:54;;;;;;;5.80;2.17;;;;;;;5.90;100.00;102432.22;1880435;76;26761;-74
2021/04/26 04:14:24;;;;;;;2.93;1.53;;;;;;;5.89;100.00;102438.82;1880504;75;26694;-75
2021/04/26 04:16:53;;;;;;;2.73;1.50;;;;;;;6.00;100.00;102436.44;1900427;75;26658;-74
2021/04/26 04:19:23;;;;;;;7.93;2.30;;;;;;;6.03;100.00;102433.27;1914686;75;26331;-75
2021/04/26 04:21:53;;;;;;;5.63;1.83;;;;;;;5.99;100.00;102434.21;1897340;76;26207;-75
2021/04/26 04:24:23;;;;;;;3.73;1.50;;;;;;;6.13;100.00;102424.84;1913921;75;26286;-75
2021/04/26 04:26:53;;;;;;;4.00;1.97;;;;;;;6.04;100.00;102419.24;1897291;76;26210;-75
2021/04/26 04:29:23;;;;;;;5.80;2.00;;;;;;;6.08;100.00;102421.88;1914251;75;26668;-75
2021/04/26 04:31:53;;;;;;;7.47;1.90;;;;;;;6.20;100.00;102407.75;1897871;75;26316;-75
2021/04/26 04:34:24;;;;;;;2.90;1.50;;;;;;;6.29;100.00;102414.69;1913718;75;26718;-75
2021/04/26 04:36:54;;;;;;;3.00;1.60;;;;;;;6.20;100.00;102413.80;1897407;76;26269;-74
2021/04/26 04:39:23;;;;;;;3.20;1.70;;;;;;;6.17;100.00;102405.41;1913717;75;26233;-74
2021/04/26 04:41:53;;;;;;;6.67;2.03;;;;;;;6.23;100.00;102397.64;1897209;76;26674;-75
2021/04/26 04:44:24;;;;;;;3.40;1.73;;;;;;;6.31;100.00;102387.73;1913748;75;26431;-75
2021/04/26 04:46:54;;;;;;;4.50;1.80;;;;;;;6.09;100.00;102387.72;1897324;76;26179;-75
2021/04/26 04:49:23;;;;;;;3.80;2.07;;;;;;;6.19;100.00;102389.49;1913768;75;26281;-75
2021/04/26 04:51:53;;;;;;;5.80;2.40;;;;;;;6.21;100.00;102383.73;1897267;75;26227;-75
2021/04/26 04:54:23;;;;;;;4.73;1.90;;;;;;;6.27;100.00;102375.45;1913690;75;26700;-76
2021/04/26 04:56:54;;;;;;;5.47;2.00;;;;;;;6.24;100.00;102380.56;1897417;75;26654;-74
2021/04/26 04:59:24;;;;;;;6.83;2.70;;;;;;;6.24;100.00;102379.18;1913661;75;26224;-74
2021/04/26 05:01:54;;;;;;;3.63;2.00;;;;;;;6.25;100.00;102384.45;1897159;74;26223;-75
2021/04/26 05:04:24;;;;;;;4.07;2.10;;;;;;;6.29;100.00;102387.09;1913720;75;26678;-74
2021/04/26 05:06:55;;;;;;;3.20;2.07;;;;;;;6.28;100.00;102387.33;1897216;76;26226;-74
2021/04/26 05:09:25;;;;;;;3.33;1.90;;;;;;;6.32;100.00;102377.02;1913671;75;26198;-74
2021/04/26 05:11:55;;;;;;;4.37;2.30;;;;;;;6.29;100.00;102384.89;1897182;76;26180;-74
2021/04/26 05:14:26;;;;;;;6.13;2.10;;;;;;;6.35;100.00;102381.23;1913827;75;26668;-75
2021/04/26 05:16:57;;;;;;;3.33;1.70;;;;;;;6.37;100.00;102373.59;1897244;76;26257;-75
2021/04/26 05:19:27;;;;;;;3.40;2.20;;;;;;;6.35;100.00;102376.57;1913763;75;26181;-74
2021/04/26 05:21:57;;;;;;;3.03;2.00;;;;;;;6.45;100.00;102373.87;1897413;75;26184;-74
2021/04/26 05:24:27;;;;;;;3.37;1.80;;;;;;;6.46;100.00;102370.87;1913685;75;26267;-75
2021/04/26 05:26:56;;;;;;;4.73;2.00;;;;;;;6.52;100.00;102371.38;1897247;76;26241;-74
2021/04/26 05:29:26;;;;;;;4.67;2.20;;;;;;;6.51;100.00;102367.45;1913801;74;26186;-75
2021/04/26 05:31:56;;;;;;;3.60;1.50;;;;;;;6.66;100.00;102383.19;1897472;76;26223;-74
2021/04/26 05:34:26;;;;;;;7.27;2.17;;;;;;;6.67;100.00;102369.70;1913877;75;26247;-75
2021/04/26 05:36:56;;;;;;;5.80;2.13;;;;;;;6.58;100.00;102370.50;1897418;76;26167;-75
2021/04/26 05:39:26;;;;;;;2.00;1.70;;;;;;;6.67;100.00;102373.32;1913659;75;26279;-74
2021/04/26 05:41:56;;;;;;;4.53;1.83;;;;;;;6.71;100.00;102375.95;1897421;75;26241;-74
2021/04/26 05:44:26;;;;;;;4.23;1.70;;;;;;;6.73;100.00;102382.08;1913649;75;26225;-75
2021/04/26 05:46:56;;;;;;;3.13;1.97;;;;;;;6.81;100.00;102383.72;1897328;76;26248;-75
2021/04/26 05:49:25;;;;;;;3.73;1.50;;;;;;;6.82;100.00;102379.89;1913756;75;26193;-75
2021/04/26 05:51:55;;;;;;;2.97;1.33;;;;;;;6.81;100.00;102375.43;1897248;76;26253;-75
2021/04/26 05:54:25;;;;;;;4.33;1.80;;;;;;;6.85;100.00;102377.52;1913639;75;26198;-75
2021/04/26 05:56:55;;;;;;;5.00;1.70;;;;;;;6.90;100.00;102377.39;1897317;76;26700;-76
2021/04/26 05:59:25;;;;;;;2.30;1.47;;;;;;;6.95;100.00;102374.80;1913649;75;26198;-75
2021/04/26 06:01:55;;;;;;;3.43;1.50;;;;;;;6.91;100.00;102370.27;1897348;74;26187;-75
2021/04/26 06:04:24;;;;;;;6.83;2.27;;;;;;;6.92;100.00;102371.97;1913719;75;26195;-75
2021/04/26 06:06:54;;;;;;;3.43;1.93;;;;;;;7.02;100.00;102368.16;1897313;76;26175;-75
2021/04/26 06:09:24;;;;;;;3.77;1.37;;;;;;;6.92;100.00;102373.88;1913893;75;26223;-75
2021/04/26 06:11:54;;;;;;;4.30;1.53;;;;;;;7.06;100.00;102372.72;1897216;76;26626;-75
2021/04/26 06:14:24;;;;;;;5.97;1.50;;;;;;;7.04;100.00;102374.84;1913629;75;26208;-75
2021/04/26 06:16:53;;;;;;;5.27;1.90;;;;;;;7.11;100.00;102375.09;1897222;76;26681;-75
2021/04/26 06:19:23;;;;;;;5.20;1.60;;;;;;;7.16;100.00;102382.71;1913672;75;26696;-75
2021/04/26 06:21:53;;;;;;;5.17;1.93;;;;;;;7.07;100.00;102382.14;1897255;76;26226;-75
2021/04/26 06:24:23;;;;;;;3.37;1.90;;;;;;;7.24;100.00;102379.13;1913664;75;26237;-75
2021/04/26 06:26:53;;;;;;;4.83;1.90;;;;;;;7.25;100.00;102373.07;1897275;76;26782;-75
2021/04/26 06:29:23;;;;;;;2.73;1.60;;;;;;;7.19;100.00;102370.66;1913634;75;26299;-75
2021/04/26 06:31:53;;;;;;;5.03;1.93;;;;;;;7.18;100.00;102375.06;1897322;74;26271;-75
2021/04/26 06:34:23;;;;;;;4.73;2.10;;;;;;;7.18;100.00;102379.20;1913963;75;26221;-75
2021/04/26 06:36:53;;;;;;;5.77;1.80;;;;;;;7.22;100.00;102381.29;1897385;76;26288;-75
2021/04/26 06:39:23;;;;;;;3.93;1.60;;;;;;;7.26;100.00;102381.68;1913657;75;26205;-76
2021/04/26 06:41:53;;;;;;;4.50;1.87;;;;;;;7.23;100.00;102379.37;1897291;76;26670;-76
2021/04/26 06:44:23;;;;;;;5.10;1.60;;;;;;;7.25;100.00;102378.06;1913741;75;26692;-77
2021/04/26 06:46:53;;;;;;;5.33;1.70;;;;;;;7.26;100.00;102382.53;1897344;76;26792;-75
2021/04/26 06:49:24;;;;;;;7.17;2.17;;;;;;;7.40;100.00;102382.41;1913730;75;26291;-76
2021/04/26 06:51:54;;;;;;;6.03;1.80;;;;;;;7.35;100.00;102372.56;1897154;76;26366;-76
2021/04/26 06:54:24;;;;;;;3.37;1.60;;;;;;;7.46;100.00;102381.48;1913720;75;26185;-75
2021/04/26 06:56:54;;;;;;;3.90;1.77;;;;;;;7.50;100.00;102378.04;1897122;76;26248;-75
2021/04/26 06:59:24;;;;;;;4.47;1.83;;;;;;;7.60;100.00;102373.38;1913670;75;26189;-76
2021/04/26 07:01:54;;;;;;;2.23;1.70;;;;;;;7.53;100.00;102369.28;1897610;74;26675;-75
2021/04/26 07:04:23;;;;;;;1.87;1.70;;;;;;;7.67;100.00;102368.61;1913814;75;26220;-75
2021/04/26 07:06:53;;;;;;;6.63;2.00;;;;;;;7.61;100.00;102364.02;1897244;76;26747;-75
2021/04/26 07:09:23;;;;;;;2.67;1.80;;;;;;;7.91;100.00;102367.72;1913599;75;26237;-76
2021/04/26 07:11:54;;;;;;;3.77;1.30;;;;;;;7.81;100.00;102361.87;1897180;76;26226;-76
2021/04/26 07:14:24;;;;;;;7.70;1.93;;;;;;;7.89;100.00;102361.56;1913626;75;26229;-76
2021/04/26 07:16:53;;;;;;;4.23;1.73;;;;;;;8.00;100.00;102364.92;1897289;76;26227;-75
2021/04/26 07:19:23;;;;;;;7.53;1.77;;;;;;;7.91;100.00;102364.95;1913686;75;26307;-77
2021/04/26 07:21:53;;;;;;;3.80;1.63;;;;;;;7.87;100.00;102358.20;1897235;76;26222;-76
2021/04/26 07:24:23;;;;;;;4.67;1.70;;;;;;;7.95;100.00;102352.35;1913591;75;26283;-76
2021/04/26 07:26:53;;;;;;;4.87;1.60;;;;;;;8.01;100.00;102358.86;1897109;76;26254;-78
2021/04/26 07:29:23;;;;;;;4.93;1.57;;;;;;;8.21;100.00;102355.33;1913618;75;26237;-79
2021/04/26 07:31:53;;;;;;;3.30;1.73;;;;;;;8.00;100.00;102363.55;1897118;74;26318;-78
2021/04/26 07:34:23;;;;;;;6.17;1.83;;;;;;;7.99;100.00;102356.34;1913627;75;26214;-78
2021/04/26 07:36:55;;;;;;;2.67;1.57;;;;;;;8.06;100.00;102355.71;1897098;76;26284;-82
2021/04/26 07:39:25;;;;;;;6.77;1.73;;;;;;;8.26;100.00;102351.86;1913720;75;26205;-82
2021/04/26 07:41:55;;;;;;;5.67;1.50;;;;;;;8.45;100.00;102352.99;1897373;76;26179;-83
2021/04/26 07:44:26;;;;;;;4.73;1.90;;;;;;;8.42;100.00;102353.47;1913665;75;26697;-81
2021/04/26 07:46:57;;;;;;;5.53;1.70;;;;;;;8.60;100.00;102349.24;1897415;76;26630;-79
2021/04/26 07:49:28;;;;;;;5.57;1.63;;;;;;;8.63;100.00;102356.25;1913746;75;26648;-78
2021/04/26 07:52:14;;;;;;;;;;;;;;;;;;;;;
2021/04/26 07:54:36;;;;;;;2.80;1.40;;;;;;;8.42;100.00;102354.86;1909217;74;26283;-78
2021/04/26 07:57:08;;;;;;;2.97;1.70;;;;;;;8.45;100.00;102352.99;1897279;76;26177;-78
2021/04/26 07:59:38;;;;;;;5.37;1.60;;;;;;;8.58;100.00;102350.57;1913700;75;26333;-79
2021/04/26 08:02:09;;;;;;;5.27;2.20;;;;;;;8.74;100.00;102349.89;1897349;74;26207;-79
2021/04/26 08:04:39;;;;;;;3.47;1.77;;;;;;;8.81;100.00;102346.50;1913753;75;26256;-79
2021/04/26 08:07:08;;;;;;;5.50;1.77;;;;;;;8.83;100.00;102342.09;1897258;76;26199;-79
2021/04/26 08:09:38;;;;;;;5.33;1.47;;;;;;;8.69;100.00;102342.83;1913712;75;26193;-79
2021/04/26 08:12:09;;;;;;;6.67;1.93;;;;;;;8.51;100.00;102346.53;1900554;75;26191;-79
2021/04/26 08:14:39;;;;;;;3.43;1.80;;;;;;;8.29;100.00;102350.88;1915914;75;26214;-79
2021/04/26 08:17:08;;;;;;;4.53;1.80;;;;;;;8.39;100.00;102347.00;1897447;76;26256;-79
2021/04/26 08:19:38;;;;;;;5.13;1.90;;;;;;;8.59;100.00;102349.50;1913711;75;26198;-79
2021/04/26 08:22:09;;;;;;;3.47;1.50;;;;;;;8.34;100.00;102341.34;1897469;76;26179;-80
2021/04/26 08:24:39;;;;;;;3.23;1.60;;;;;;;8.47;100.00;102341.70;1913795;75;26636;-80
2021/04/26 08:27:10;;;;;;;4.10;2.10;;;;;;;8.31;100.00;102345.94;1897320;76;26194;-79
2021/04/26 08:29:40;;;;;;;5.10;2.20;;;;;;;8.52;100.00;102347.34;1913770;75;26649;-79
2021/04/26 08:32:09;;;;;;;3.87;1.63;;;;;;;8.57;100.00;102344.19;1897289;74;26635;-79
2021/04/26 08:34:39;;;;;;;8.33;2.10;;;;;;;8.62;100.00;102344.33;1913692;75;26648;-79
2021/04/26 08:37:09;;;;;;;3.20;1.63;;;;;;;8.77;100.00;102331.41;1897350;75;26183;-79
2021/04/26 08:39:39;;;;;;;4.47;1.97;;;;;;;8.89;100.00;102329.53;1913718;75;26263;-80
2021/04/26 08:42:09;;;;;;;5.37;2.10;;;;;;;9.47;100.00;102324.55;1897284;76;26191;-79
2021/04/26 08:44:39;;;;;;;2.37;1.60;;;;;;;9.97;100.00;102315.11;1913714;75;26644;-79
2021/04/26 08:47:10;;;;;;;3.10;1.80;;;;;;;10.21;100.00;102312.61;1897295;76;26192;-79
2021/04/26 08:49:42;;;;;;;3.80;1.50;;;;;;;9.91;100.00;102319.73;1913792;75;26190;-80
2021/04/26 08:52:11;;;;;;;5.50;2.20;;;;;;;9.48;100.00;102317.92;1897250;76;26253;-79
2021/04/26 08:54:42;;;;;;;7.57;2.03;;;;;;;9.26;100.00;102316.30;1913681;75;26188;-80
2021/04/26 08:57:12;;;;;;;2.83;1.60;;;;;;;9.20;100.00;102314.47;1897394;75;26639;-80
2021/04/26 08:59:43;;;;;;;3.63;1.90;;;;;;;8.93;100.00;102322.42;1916848;75;26265;-80
2021/04/26 09:02:14;;;;;;;2.23;1.90;;;;;;;9.10;100.00;102326.19;1900542;74;26215;-80
2021/04/26 09:04:50;;;;;;;3.87;1.77;;;;;;;9.05;100.00;102317.73;1913808;74;26181;-80
2021/04/26 09:07:21;;;;;;;4.50;2.43;;;;;;;9.03;100.00;102309.34;1897299;76;26195;-80
2021/04/26 09:09:52;;;;;;;5.10;1.87;;;;;;;9.43;100.00;102296.46;1913716;75;26178;-80
2021/04/26 09:12:31;;;;;;;3.97;1.60;;;;;;;9.75;100.00;102292.75;1897242;76;26176;-80
2021/04/26 09:15:04;;;;;;;4.67;1.90;;;;;;;9.43;100.00;102292.84;1913798;75;26235;-80
2021/04/26 09:17:36;;;;;;;3.07;1.97;;;;;;;9.43;100.00;102286.75;1897262;76;26623;-80
2021/04/26 09:20:25;;;;;;;5.27;1.90;;;;;;;9.88;100.00;102279.14;1913677;75;26300;-80
2021/04/26 09:22:57;;;;;;;3.73;1.90;;;;;;;10.31;100.00;102282.23;1897215;76;26298;-80
2021/04/26 09:25:33;;;;;;;3.70;2.10;;;;;;;10.69;100.00;102273.78;1913676;75;26178;-79
2021/04/26 09:28:06;;;;;;;3.17;1.77;;;;;;;10.73;100.00;102274.42;1897357;76;26254;-80
2021/04/26 09:30:48;;;;;;;4.67;2.17;;;;;;;10.42;100.00;102276.34;1913691;75;26202;-80
2021/04/26 09:33:22;;;;;;;2.17;1.70;;;;;;;10.57;100.00;102273.83;1897248;74;26227;-80
2021/04/26 09:36:12;;;;;;;4.33;1.67;;;;;;;10.72;100.00;102276.89;1913715;75;26181;-80
2021/04/26 09:38:43;;;;;;;3.17;1.77;;;;;;;10.89;100.00;102267.17;1896889;76;26175;-80
2021/04/26 09:41:20;;;;;;;3.83;1.80;;;;;;;10.48;100.00;102261.47;1913748;75;26182;-80
2021/04/26 09:43:53;;;;;;;3.27;1.73;;;;;;;10.52;100.00;102256.25;1897221;76;26712;-79
2021/04/26 09:46:25;;;;;;;4.60;2.00;;;;;;;10.27;100.00;102253.28;1913824;75;26215;-79
2021/04/26 09:48:55;;;;;;;4.27;2.10;;;;;;;10.32;100.00;102249.76;1896208;75;26316;-80
2021/04/26 09:51:26;;;;;;;4.33;2.00;;;;;;;10.47;100.00;102245.34;1913583;75;26841;-80
2021/04/26 09:53:56;;;;;;;3.77;1.80;;;;;;;10.59;100.00;102243.87;1897446;75;26208;-80
2021/04/26 09:56:30;;;;;;;3.40;1.83;;;;;;;10.74;100.00;102252.45;1913640;75;26314;-80
2021/04/26 09:59:02;;;;;;;5.93;1.80;;;;;;;10.85;100.00;102241.82;1897269;76;26627;-79
2021/04/26 10:01:32;;;;;;;6.13;2.23;;;;;;;11.08;100.00;102244.13;1913786;75;26182;-80
2021/04/26 10:04:04;;;;;;;4.63;2.30;;;;;;;10.82;100.00;102248.44;1897267;74;26203;-80
2021/04/26 10:06:35;;;;;;;4.03;2.23;;;;;;;11.27;100.00;102231.60;1913692;75;26245;-80
2021/04/26 10:09:08;;;;;;;5.43;1.80;;;;;;;10.91;100.00;102224.69;1897165;75;26183;-79
2021/04/26 10:11:39;;;;;;;6.53;1.90;;;;;;;10.90;100.00;102225.23;1913831;75;26183;-79
2021/04/26 10:14:11;;;;;;;4.73;1.90;;;;;;;11.29;100.00;102229.42;1897397;76;26696;-79
2021/04/26 10:16:45;;;;;;;3.17;2.10;;;;;;;10.78;100.00;102223.06;1913784;75;26622;-80
2021/04/26 10:19:15;;;;;;;6.43;2.27;;;;;;;10.87;100.00;102213.75;1897171;76;26180;-80
2021/04/26 10:21:57;;;;;;;2.93;1.90;;;;;;;11.04;100.00;102208.20;1913668;75;26191;-80
2021/04/26 10:24:29;;;;;;;3.00;2.20;;;;;;;10.82;100.00;102204.81;1897201;76;26289;-80
2021/04/26 10:27:01;;;;;;;4.27;2.17;;;;;;;11.18;100.00;102199.76;1913611;75;26183;-80
2021/04/26 10:29:33;;;;;;;4.80;2.10;;;;;;;11.37;100.00;102197.83;1897163;76;26697;-77
2021/04/26 10:32:09;;;;;;;4.97;2.47;;;;;;;11.32;100.00;102199.69;1913723;75;26205;-78
2021/04/26 10:34:59;;;;;;;4.03;2.00;;;;;;;11.44;100.00;102193.45;1897133;76;26638;-78
2021/04/26 10:37:29;;;;;;;5.13;2.20;;;;;;;11.24;100.00;102191.80;1913588;75;26182;-77
2021/04/26 10:40:14;;;;;;;2.90;2.00;;;;;;;11.41;100.00;102181.45;1897176;76;26183;-78
2021/04/26 10:42:45;;;;;;;5.50;2.00;;;;;;;11.52;100.00;102181.02;1913661;75;26634;-79
2021/04/26 10:45:21;;;;;;;3.20;2.17;;;;;;;11.34;100.00;102181.63;1897271;76;26176;-79
2021/04/26 10:48:10;;;;;;;7.10;2.37;;;;;;;11.55;100.00;102168.81;1913580;75;26186;-79
2021/04/26 10:50:43;;;;;;;4.30;2.50;;;;;;;11.72;100.00;102164.63;1897121;76;26746;-79
2021/04/26 10:53:14;;;;;;;3.60;2.40;;;;;;;11.58;100.00;102166.92;1913603;75;26631;-78
2021/04/26 10:55:47;;;;;;;5.53;2.17;;;;;;;11.51;100.00;102166.84;1897290;76;26253;-78
2021/04/26 10:58:45;;;;;;;7.10;2.03;;;;;;;11.68;100.00;102160.64;1913631;75;26198;-78
2021/04/26 11:01:19;;;;;;;4.57;2.60;;;;;;;11.93;100.00;102151.75;1897263;76;26623;-78
2021/04/26 11:03:49;;;;;;;5.10;2.23;;;;;;;11.80;100.00;102145.51;1913531;74;26221;-77
2021/04/26 11:06:28;;;;;;;6.07;2.40;;;;;;;11.77;100.00;102148.79;1897349;75;26166;-78
2021/04/26 11:09:11;;;;;;;3.60;2.30;;;;;;;11.81;100.00;102147.71;1913531;75;26591;-78
2021/04/26 11:11:55;;;;;;;5.57;2.30;;;;;;;11.96;100.00;102147.05;1897227;76;26249;-78
2021/04/26 11:14:26;;;;;;;4.07;2.07;;;;;;;11.65;100.00;102150.02;1912721;74;26257;-78
2021/04/26 11:17:11;;;;;;;3.80;2.40;;;;;;;11.95;100.00;102139.78;1897134;76;26480;-77
2021/04/26 11:20:13;;;;;;;5.23;2.67;;;;;;;12.23;100.00;102128.37;1913662;75;26255;-78
2021/04/26 11:22:43;;;;;;;4.93;2.27;;;;;;;12.11;100.00;102111.81;1898323;75;26607;-78
2021/04/26 11:25:32;;;;;;;3.27;2.13;;;;;;;12.12;100.00;102108.48;1914278;75;26632;-78
2021/04/26 11:28:03;;;;;;;4.67;2.57;;;;;;;11.99;100.00;102101.95;1897537;76;26635;-78
2021/04/26 11:30:35;;;;;;;4.37;2.73;;;;;;;11.86;100.00;102091.54;1913745;75;26253;-78
2021/04/26 11:33:17;;;;;;;4.70;2.47;;;;;;;12.24;100.00;102088.25;1897375;76;26634;-78
2021/04/26 11:36:18;;;;;;;5.03;2.67;;;;;;;11.99;100.00;102088.03;1913646;75;26280;-78
2021/04/26 11:38:49;;;;;;;3.73;2.60;;;;;;;12.00;100.00;102082.20;1852597;75;26182;-78
2021/04/26 11:41:19;;;;;;;4.50;2.60;;;;;;;12.08;100.00;102083.11;1913766;75;26633;-78
2021/04/26 11:43:53;;;;;;;4.83;2.50;;;;;;;12.17;100.00;102078.73;1897487;76;26186;-78
2021/04/26 11:46:31;;;;;;;4.67;2.27;;;;;;;12.30;100.00;102065.75;1914268;75;26193;-78